Amberg, Wisconsin
Current Conditions -  °F | °C
As of 5:54 AM on Thursday 18 Dec 2014 (Local Time) from KIMT Reporting Station
Overcast Overcast  
Wind Chill: 13°   Ceiling: 1700
Heat Index: 23°   Visibility: 10mi
Dew Point: 18°   Wind: 9mph
Humidity: 81%   Direction: 340°NNW
Pressure: 30.24"   Gusts: NA
Location:  45.5°N, 87.99°W
Report Text: KIMT 181154Z AUTO 34008KT 10SM OVC017 M05/M08 A3024 RMK AO2 SLP261 T10501078 11039 21050 55002
Loading
Personal Weather Stations






























Interactive Weather Map New forecast layout! Learn more

10-Day Weather Forecast

Advertisements
Track Severe Weather on mobile